Time;durP1;ratioP1;P1;durP2;ratioP2;P2;SDS_P1;SDS_P2;PMS_P1;PMS_P2;Temp;Humidity;BMP_temperature;BMP_pressure;BME280_temperature;BME280_humidity;BME280_pressure;Samples;Min_cycle;Max_cycle;Signal;HPM_P1;HPM_P2
2022/10/31 00:01:16;;;;;;;53.65;13.68;;;;;;;17.42;71.04;100987.47;5092235;28;20028;-78
2022/10/31 00:03:42;;;;;;;70.60;15.32;;;;;;;17.43;70.91;100991.88;5092151;28;20104;-80
2022/10/31 00:06:08;;;;;;;105.97;15.43;;;;;;;17.23;70.77;100952.34;5091608;28;20407;-80
2022/10/31 00:08:33;;;;;;;50.72;14.25;;;;;;;17.41;70.55;100993.06;5091265;28;20028;-81
2022/10/31 00:10:58;;;;;;;45.00;12.00;;;;;;;17.40;70.80;100989.50;5091597;28;20110;-80
2022/10/31 00:13:24;;;;;;;38.97;12.20;;;;;;;17.39;71.08;100997.81;5091711;28;20024;-81
2022/10/31 00:15:49;;;;;;;208.80;22.30;;;;;;;17.45;71.15;100993.59;5091247;28;20027;-78
2022/10/31 00:18:15;;;;;;;134.05;16.50;;;;;;;17.24;71.09;100950.47;5091287;28;20027;-80
2022/10/31 00:20:40;;;;;;;105.30;14.85;;;;;;;17.52;71.20;100983.81;5091185;28;20020;-80
2022/10/31 00:23:06;;;;;;;36.83;15.15;;;;;;;17.53;71.28;100974.59;5091380;28;20020;-78
2022/10/31 00:25:38;;;;;;;66.10;15.30;;;;;;;17.58;71.44;100984.06;5091123;28;20024;-79
2022/10/31 00:28:04;;;;;;;51.17;13.82;;;;;;;17.61;71.40;100982.88;5091803;28;20089;-79
2022/10/31 00:30:30;;;;;;;30.10;13.73;;;;;;;17.61;71.54;100985.59;5091689;28;20055;-81
2022/10/31 00:32:55;;;;;;;41.90;13.27;;;;;;;17.61;71.77;100988.31;5091149;28;20491;-79
2022/10/31 00:35:21;;;;;;;24.75;13.95;;;;;;;17.57;71.94;100987.78;5091561;28;20040;-79
2022/10/31 00:37:46;;;;;;;38.83;14.57;;;;;;;17.55;71.98;100980.78;5091407;28;20508;-80
2022/10/31 00:40:12;;;;;;;42.38;12.93;;;;;;;17.52;72.00;100975.66;5090719;28;20020;-78
2022/10/31 00:42:39;;;;;;;101.90;17.13;;;;;;;17.58;71.76;100977.75;5091061;28;20032;-79
2022/10/31 00:45:05;;;;;;;24.95;12.32;;;;;;;17.58;71.20;100983.19;5091473;28;20046;-79
2022/10/31 00:47:30;;;;;;;25.23;13.20;;;;;;;17.55;71.57;100984.34;5090429;28;20035;-78
2022/10/31 00:49:56;;;;;;;40.47;15.13;;;;;;;17.39;71.90;100949.75;5090811;28;20024;-80
2022/10/31 00:52:21;;;;;;;29.20;13.20;;;;;;;17.59;71.92;100984.88;5090954;28;20051;-78
2022/10/31 00:54:46;;;;;;;161.18;21.05;;;;;;;17.64;72.29;100980.69;5090788;28;20054;-80
2022/10/31 00:57:12;;;;;;;41.70;15.02;;;;;;;17.64;72.56;100977.97;5099765;28;20084;-80
2022/10/31 00:59:37;;;;;;;45.60;15.32;;;;;;;17.64;72.85;100979.81;5098105;28;20020;-77
2022/10/31 01:02:03;;;;;;;29.60;14.75;;;;;;;17.64;72.85;100977.97;5109639;28;20028;-78
2022/10/31 01:04:28;;;;;;;21.35;12.82;;;;;;;17.67;72.69;100976.78;5111239;28;20095;-78
2022/10/31 01:06:54;;;;;;;81.15;16.50;;;;;;;17.70;72.39;100979.19;5101565;28;20039;-79
2022/10/31 01:09:19;;;;;;;39.30;14.75;;;;;;;17.72;72.30;100979.84;5090299;28;20384;-79
2022/10/31 01:11:45;;;;;;;38.20;13.52;;;;;;;17.71;72.20;100983.59;5090540;28;20024;-79
2022/10/31 01:14:10;;;;;;;46.20;14.60;;;;;;;17.73;72.13;100987.00;5090081;28;20024;-79
2022/10/31 01:16:36;;;;;;;71.38;15.05;;;;;;;17.72;72.18;100985.31;5090206;28;20023;-79
2022/10/31 01:19:01;;;;;;;38.08;13.05;;;;;;;17.74;71.92;100977.81;5089872;28;20440;-79
2022/10/31 01:21:28;;;;;;;24.80;12.82;;;;;;;17.73;71.93;100977.00;5089860;28;20479;-78
2022/10/31 01:23:55;;;;;;;50.53;14.63;;;;;;;17.76;71.93;100986.69;5089906;28;20523;-80
2022/10/31 01:26:26;;;;;;;47.15;14.90;;;;;;;17.76;71.67;100981.25;5090381;28;20505;-80
2022/10/31 01:28:55;;;;;;;27.08;12.65;;;;;;;17.60;71.88;100951.22;5090113;28;20036;-80
2022/10/31 01:31:22;;;;;;;62.05;15.35;;;;;;;17.76;71.80;100978.53;5089469;28;20056;-77
2022/10/31 01:33:48;;;;;;;42.53;14.57;;;;;;;17.73;71.53;100970.69;5089995;28;20026;-80
2022/10/31 01:36:18;;;;;;;36.35;13.60;;;;;;;17.74;71.61;100975.09;5089589;28;20039;-78
2022/10/31 01:38:44;;;;;;;106.95;18.98;;;;;;;17.74;71.62;100977.81;5089618;28;20036;-79
2022/10/31 01:41:14;;;;;;;86.10;17.23;;;;;;;17.76;71.53;100983.97;5089475;28;20040;-79
2022/10/31 01:43:47;;;;;;;59.45;16.65;;;;;;;17.74;71.36;100980.53;5088921;28;20426;-78
2022/10/31 01:46:13;;;;;;;49.65;15.10;;;;;;;17.72;71.63;100974.41;5089484;28;20028;-80
2022/10/31 01:48:40;;;;;;;43.08;14.13;;;;;;;17.54;71.70;100949.13;5089778;28;20027;-78
2022/10/31 01:51:07;;;;;;;31.83;14.30;;;;;;;17.51;71.76;100954.88;5089379;28;20402;-78
2022/10/31 01:53:34;;;;;;;32.63;13.73;;;;;;;17.70;71.81;100985.47;5091462;28;20121;-81
2022/10/31 01:56:00;;;;;;;22.67;13.18;;;;;;;17.69;71.73;100983.75;5089206;28;20047;-78
2022/10/31 01:58:29;;;;;;;26.15;13.25;;;;;;;17.66;71.95;100985.94;5089090;28;20450;-78
2022/10/31 02:01:00;;;;;;;22.67;13.52;;;;;;;17.65;71.82;100984.22;5089784;28;20080;-78
2022/10/31 02:03:26;;;;;;;34.08;14.90;;;;;;;17.33;71.87;100935.94;5089402;28;20028;-79
2022/10/31 02:05:55;;;;;;;32.10;14.13;;;;;;;17.60;71.65;100981.16;5089680;28;20092;-81
2022/10/31 02:08:33;;;;;;;43.25;15.07;;;;;;;17.59;71.81;100984.88;5089355;28;20054;-81
2022/10/31 02:11:00;;;;;;;32.95;18.65;;;;;;;17.62;71.71;100990.00;5089228;28;20043;-79
2022/10/31 02:13:28;;;;;;;40.58;22.17;;;;;;;17.60;71.52;100990.16;5105232;28;20024;-78
2022/10/31 02:15:56;;;;;;;33.90;20.60;;;;;;;17.59;71.53;100984.88;5108125;28;20028;-80
2022/10/31 02:18:24;;;;;;;43.05;21.48;;;;;;;17.51;71.38;100972.06;5105143;28;20130;-78
2022/10/31 02:21:11;;;;;;;38.45;21.75;;;;;;;17.61;71.27;100980.16;5089048;28;20447;-79
2022/10/31 02:23:49;;;;;;;35.70;21.08;;;;;;;17.61;71.00;100988.31;5088746;28;20035;-78
2022/10/31 02:26:23;;;;;;;34.38;21.63;;;;;;;17.62;70.85;100981.84;5088879;28;20036;-80
2022/10/31 02:29:10;;;;;;;45.35;21.52;;;;;;;17.63;70.75;100983.56;5088909;28;20032;-79
2022/10/31 02:31:59;;;;;;;43.60;23.15;;;;;;;17.54;70.38;100965.44;5088818;28;20112;-79
2022/10/31 02:34:56;;;;;;;42.55;21.55;;;;;;;17.62;70.23;100990.84;5089007;28;20228;-80
2022/10/31 02:37:34;;;;;;;40.88;19.70;;;;;;;17.61;69.93;101002.78;5088632;28;20024;-78
2022/10/31 02:40:23;;;;;;;36.13;19.35;;;;;;;17.61;69.71;101010.06;5088555;28;20039;-78
2022/10/31 02:43:07;;;;;;;42.60;17.88;;;;;;;17.53;69.51;100990.94;5087209;28;20035;-78
2022/10/31 02:45:40;;;;;;;50.20;18.35;;;;;;;17.66;69.84;101011.28;5088663;28;20077;-78
2022/10/31 02:48:14;;;;;;;60.17;18.33;;;;;;;17.62;70.12;101006.31;5088510;28;20495;-79
2022/10/31 02:50:43;;;;;;;46.28;18.30;;;;;;;17.53;69.92;101001.81;5088287;28;20108;-80
2022/10/31 02:53:09;;;;;;;42.22;18.40;;;;;;;17.51;69.90;101007.41;5088504;28;20156;-79
2022/10/31 02:55:34;;;;;;;48.28;18.02;;;;;;;17.58;70.34;100999.50;5089690;28;20058;-79
2022/10/31 02:58:02;;;;;;;44.72;17.88;;;;;;;17.62;70.94;100998.16;5092453;28;20028;-79
2022/10/31 03:00:36;;;;;;;35.88;17.27;;;;;;;17.62;70.96;101000.88;5092775;28;20055;-79
2022/10/31 03:03:11;;;;;;;38.90;16.55;;;;;;;17.65;70.85;101003.28;5092405;28;20704;-78
2022/10/31 03:05:36;;;;;;;43.97;18.48;;;;;;;17.65;71.25;101000.56;5073286;28;20039;-79
2022/10/31 03:08:23;;;;;;;38.80;15.90;;;;;;;17.61;71.57;101007.34;5092292;28;20106;-81
2022/10/31 03:10:57;;;;;;;38.75;15.10;;;;;;;17.59;72.06;101001.19;5092505;28;20032;-79
2022/10/31 03:13:25;;;;;;;38.30;16.30;;;;;;;17.37;72.06;100970.78;5092319;28;20429;-80
2022/10/31 03:16:03;;;;;;;24.77;14.65;;;;;;;17.53;72.07;101008.09;5092602;28;20165;-78
2022/10/31 03:18:33;;;;;;;27.60;14.15;;;;;;;17.35;72.15;100977.41;5092356;28;20510;-79
2022/10/31 03:21:05;;;;;;;46.83;14.98;;;;;;;17.49;72.20;101005.88;5092207;28;20034;-78
2022/10/31 03:23:33;;;;;;;32.80;13.68;;;;;;;17.46;71.89;101017.06;5092462;28;20384;-79
2022/10/31 03:26:03;;;;;;;29.70;13.82;;;;;;;17.44;72.33;101011.78;5114356;28;20043;-76
2022/10/31 03:28:39;;;;;;;32.78;15.20;;;;;;;17.39;72.56;101006.84;5117840;28;20048;-77
2022/10/31 03:31:06;;;;;;;31.15;13.25;;;;;;;17.38;72.68;101023.31;5106913;28;20368;-80
2022/10/31 03:33:37;;;;;;;26.77;13.32;;;;;;;17.40;72.56;101027.56;5092149;28;20553;-79
2022/10/31 03:36:07;;;;;;;25.95;12.93;;;;;;;17.37;72.33;101024.31;5092051;28;20031;-80
2022/10/31 03:38:35;;;;;;;37.97;13.57;;;;;;;17.18;72.21;100992.75;5092040;28;20475;-79
2022/10/31 03:41:05;;;;;;;31.33;13.13;;;;;;;17.27;72.31;101024.44;5091805;28;20028;-78
2022/10/31 03:43:37;;;;;;;35.97;12.32;;;;;;;17.07;72.28;101003.84;5091990;28;20107;-81
2022/10/31 03:46:04;;;;;;;38.75;23.05;;;;;;;17.22;71.49;101037.63;5091788;28;20034;-79
2022/10/31 03:48:29;;;;;;;51.15;26.10;;;;;;;17.04;70.87;101015.03;5091885;28;20076;-79
2022/10/31 03:51:04;;;;;;;53.60;24.83;;;;;;;17.20;70.70;101036.06;5072341;28;20119;-78
2022/10/31 03:53:53;;;;;;;50.17;25.05;;;;;;;17.25;70.69;101036.44;5091786;28;20134;-80
2022/10/31 03:56:26;;;;;;;33.17;21.20;;;;;;;17.28;70.72;101037.00;5029450;28;20077;-78
2022/10/31 03:59:07;;;;;;;42.33;19.33;;;;;;;17.04;70.70;100993.31;5031138;28;20076;-80
2022/10/31 04:01:37;;;;;;;48.92;24.35;;;;;;;17.34;70.75;101047.22;5029779;28;20037;-81
2022/10/31 04:04:04;;;;;;;37.50;24.67;;;;;;;17.38;70.38;101048.63;5028801;28;20048;-79
2022/10/31 04:06:31;;;;;;;40.40;23.98;;;;;;;17.41;70.46;101053.75;5028262;28;20036;-78
2022/10/31 04:09:03;;;;;;;79.82;25.45;;;;;;;17.46;70.49;101047.00;5027951;28;20037;-79
2022/10/31 04:11:34;;;;;;;66.47;25.27;;;;;;;17.46;70.36;101044.28;5028524;28;20501;-79
2022/10/31 04:14:01;;;;;;;47.47;25.23;;;;;;;17.48;70.41;101042.25;5028309;28;20511;-78
2022/10/31 04:16:27;;;;;;;105.32;27.23;;;;;;;17.48;70.18;101047.69;5028493;28;20574;-79
2022/10/31 04:18:53;;;;;;;68.43;26.25;;;;;;;17.52;70.09;101058.06;5028156;28;20038;-80
2022/10/31 04:21:18;;;;;;;62.95;27.85;;;;;;;17.55;69.83;101052.34;5028169;28;20050;-79
2022/10/31 04:23:44;;;;;;;63.53;28.40;;;;;;;17.48;70.06;101064.00;5028600;28;20054;-79
2022/10/31 04:26:11;;;;;;;54.40;27.77;;;;;;;17.29;69.72;101030.56;5011738;28;20049;-80
2022/10/31 04:28:37;;;;;;;50.20;27.27;;;;;;;17.53;69.21;101061.66;5028536;28;20520;-79
2022/10/31 04:31:02;;;;;;;53.83;27.50;;;;;;;17.57;69.02;101076.69;5028533;28;20112;-78
2022/10/31 04:33:28;;;;;;;61.45;28.60;;;;;;;17.50;68.80;101057.38;5063559;28;20043;-79
2022/10/31 04:35:53;;;;;;;62.95;25.75;;;;;;;17.53;68.76;101061.66;5093211;28;20483;-78
2022/10/31 04:38:19;;;;;;;43.50;23.85;;;;;;;17.54;68.63;101068.81;5111886;28;20024;-79
2022/10/31 04:40:45;;;;;;;40.05;22.05;;;;;;;17.54;68.60;101074.25;5109400;28;20032;-77
2022/10/31 04:43:11;;;;;;;46.08;23.10;;;;;;;17.50;68.63;101075.56;5102471;28;20040;-80
2022/10/31 04:45:37;;;;;;;76.82;23.70;;;;;;;17.48;68.48;101070.28;5091727;28;20032;-78
2022/10/31 04:48:03;;;;;;;65.13;23.48;;;;;;;17.49;68.45;101082.03;5091117;28;20016;-80
2022/10/31 04:50:28;;;;;;;64.05;25.25;;;;;;;17.54;68.49;101085.13;5090572;28;20515;-79
2022/10/31 04:52:54;;;;;;;114.95;30.77;;;;;;;17.56;68.39;101097.56;5090485;28;20020;-81
2022/10/31 04:55:19;;;;;;;77.20;35.92;;;;;;;17.54;68.56;101096.00;5090429;28;20059;-80
2022/10/31 04:57:47;;;;;;;193.02;36.50;;;;;;;17.58;68.27;101101.00;5090229;28;20026;-78
2022/10/31 05:00:15;;;;;;;157.60;40.65;;;;;;;17.61;67.62;101102.56;5090428;28;20111;-79
2022/10/31 05:02:44;;;;;;;93.53;36.70;;;;;;;17.64;67.75;101110.41;5090579;28;20032;-80
2022/10/31 05:05:10;;;;;;;135.43;44.65;;;;;;;17.65;67.09;101125.69;5090352;28;20031;-80
2022/10/31 05:07:42;;;;;;;137.93;45.65;;;;;;;17.61;66.62;101133.34;5090362;28;20031;-80
2022/10/31 05:10:10;;;;;;;98.45;43.85;;;;;;;17.45;66.83;101125.00;5090168;28;20456;-80
2022/10/31 05:12:35;;;;;;;101.75;43.03;;;;;;;17.36;66.91;101129.53;5091008;28;20110;-80
2022/10/31 05:15:01;;;;;;;100.47;42.42;;;;;;;17.36;66.69;101115.94;5090328;28;20119;-80
2022/10/31 05:17:26;;;;;;;111.80;44.78;;;;;;;17.58;66.22;101140.97;5089746;28;20028;-80
2022/10/31 05:19:52;;;;;;;101.68;42.22;;;;;;;17.62;66.10;101142.31;5089744;28;20028;-78
2022/10/31 05:22:17;;;;;;;104.00;43.42;;;;;;;17.64;65.91;101134.88;5090229;28;20080;-79
2022/10/31 05:24:42;;;;;;;131.63;43.10;;;;;;;17.66;66.08;101143.72;5090173;28;20027;-80
2022/10/31 05:27:08;;;;;;;290.05;55.92;;;;;;;17.57;66.04;101122.91;5090158;28;20024;-78
2022/10/31 05:29:33;;;;;;;106.95;38.47;;;;;;;17.75;66.33;101146.34;5090473;28;20553;-79
2022/10/31 05:31:59;;;;;;;106.10;43.05;;;;;;;17.73;66.20;101155.69;5089593;28;20063;-80
2022/10/31 05:34:24;;;;;;;123.43;43.17;;;;;;;17.69;66.24;101154.28;5089489;28;20031;-79
2022/10/31 05:36:50;;;;;;;163.35;46.40;;;;;;;17.66;66.09;101157.34;5089542;28;20032;-79
2022/10/31 05:39:15;;;;;;;130.43;48.38;;;;;;;17.73;65.90;101161.13;5088070;28;20126;-80
2022/10/31 05:41:41;;;;;;;148.20;45.63;;;;;;;17.75;65.58;101156.38;5090168;28;20032;-80
2022/10/31 05:44:06;;;;;;;85.38;35.33;;;;;;;17.88;65.39;101175.88;5089658;28;20028;-78
2022/10/31 05:46:32;;;;;;;97.30;36.20;;;;;;;17.89;65.04;101161.25;5090064;28;20115;-77
2022/10/31 05:48:57;;;;;;;174.82;46.90;;;;;;;18.07;65.19;101181.09;5098927;28;20024;-78
2022/10/31 05:51:22;;;;;;;176.02;47.50;;;;;;;18.12;65.09;101184.22;5113679;28;20096;-76
2022/10/31 05:53:48;;;;;;;259.15;47.50;;;;;;;18.05;65.60;101161.38;5112433;28;20020;-78
2022/10/31 05:56:13;;;;;;;228.75;87.85;;;;;;;18.29;65.68;101191.47;5096479;28;20096;-79
2022/10/31 05:58:38;;;;;;;155.55;43.22;;;;;;;18.38;65.60;101193.22;5089882;28;20024;-80
2022/10/31 06:01:05;;;;;;;115.45;26.38;;;;;;;18.48;65.29;101191.25;5089497;28;20024;-80
2022/10/31 06:03:30;;;;;;;116.22;27.48;;;;;;;18.62;64.48;101192.56;5089586;28;20070;-79
2022/10/31 06:05:56;;;;;;;71.43;18.95;;;;;;;18.64;64.40;101184.22;5089463;28;20055;-79
2022/10/31 06:08:21;;;;;;;252.57;26.45;;;;;;;18.78;64.14;101191.75;5088983;28;20068;-80
2022/10/31 06:10:47;;;;;;;124.45;21.08;;;;;;;18.90;63.42;101195.88;5089680;28;20038;-79
2022/10/31 06:13:12;;;;;;;79.95;16.63;;;;;;;18.74;62.84;101152.25;5089478;28;20027;-79
2022/10/31 06:15:38;;;;;;;75.63;16.13;;;;;;;19.00;62.58;101189.28;5088966;28;20493;-79
2022/10/31 06:18:05;;;;;;;41.10;15.52;;;;;;;19.07;62.20;101194.94;5089471;28;20042;-80
2022/10/31 06:20:31;;;;;;;65.10;16.60;;;;;;;19.07;62.41;101192.22;5089353;28;20043;-80
2022/10/31 06:22:57;;;;;;;143.57;20.75;;;;;;;19.10;62.30;101191.88;5088598;28;20056;-78
2022/10/31 06:25:22;;;;;;;103.68;17.95;;;;;;;19.07;62.61;101194.94;5089141;28;20100;-80
2022/10/31 06:27:47;;;;;;;177.52;21.42;;;;;;;18.93;62.62;101171.03;5088656;28;20038;-80
2022/10/31 06:30:13;;;;;;;111.00;18.83;;;;;;;19.07;62.75;101203.13;5086971;28;20039;-80
2022/10/31 06:32:38;;;;;;;389.50;40.08;;;;;;;19.04;62.84;101192.53;5089038;28;20052;-79
2022/10/31 06:35:04;;;;;;;200.43;25.52;;;;;;;19.10;63.08;101191.88;5088884;28;20031;-80
2022/10/31 06:37:30;;;;;;;87.63;18.05;;;;;;;19.13;62.90;101205.19;5088754;28;20185;-79
2022/10/31 06:39:55;;;;;;;344.20;31.55;;;;;;;19.09;62.91;101181.97;5088673;28;20122;-79
2022/10/31 06:42:21;;;;;;;230.15;26.50;;;;;;;19.24;62.92;101207.59;5088761;28;20036;-80
2022/10/31 06:44:46;;;;;;;67.22;16.35;;;;;;;19.24;63.00;101207.59;5088703;28;20028;-79
2022/10/31 06:47:11;;;;;;;161.13;25.40;;;;;;;19.25;63.25;101220.22;5088520;28;20119;-79
2022/10/31 06:49:37;;;;;;;176.13;26.52;;;;;;;19.31;63.45;101221.41;5088647;28;20407;-80
2022/10/31 06:52:02;;;;;;;113.20;20.40;;;;;;;19.36;63.36;101216.31;5088510;28;20039;-80
2022/10/31 06:54:28;;;;;;;60.42;17.95;;;;;;;19.46;63.41;101219.78;5087980;28;20108;-81
2022/10/31 06:56:53;;;;;;;45.92;18.27;;;;;;;19.52;63.50;101213.66;5089611;28;20490;-80
2022/10/31 06:59:19;;;;;;;62.63;18.50;;;;;;;19.53;63.45;101213.50;5089638;28;20063;-78
2022/10/31 07:01:44;;;;;;;148.55;23.85;;;;;;;19.65;63.31;101227.66;5104022;28;20036;-80
2022/10/31 07:04:11;;;;;;;68.82;20.40;;;;;;;19.69;63.16;101225.44;5111655;28;20028;-78
2022/10/31 07:06:36;;;;;;;122.22;22.08;;;;;;;19.75;63.11;101219.31;5111004;28;20036;-80
2022/10/31 07:09:04;;;;;;;61.42;19.83;;;;;;;19.81;63.12;101218.63;5088620;28;20126;-81
2022/10/31 07:11:29;;;;;;;63.85;22.05;;;;;;;19.89;63.48;101221.34;5088757;28;20407;-80
2022/10/31 07:13:56;;;;;;;81.78;24.90;;;;;;;19.90;62.75;101223.94;5088753;28;20028;-80
2022/10/31 07:16:21;;;;;;;72.05;26.20;;;;;;;19.98;62.05;101220.31;5088465;28;20020;-78
2022/10/31 07:18:46;;;;;;;74.85;24.88;;;;;;;20.03;61.63;101212.47;5088275;28;20505;-80
2022/10/31 07:21:12;;;;;;;71.88;24.90;;;;;;;20.05;61.37;101216.75;5088136;28;20093;-79
2022/10/31 07:23:37;;;;;;;71.25;29.45;;;;;;;20.15;61.04;101213.81;5088136;28;20104;-78
2022/10/31 07:26:03;;;;;;;79.50;28.65;;;;;;;20.03;60.50;101210.59;5088628;28;20032;-80
2022/10/31 07:28:28;;;;;;;92.00;28.75;;;;;;;20.00;59.84;101218.28;5088169;28;20031;-79
2022/10/31 07:30:57;;;;;;;78.43;27.70;;;;;;;19.97;59.66;101226.81;5088419;28;20074;-80
2022/10/31 07:33:25;;;;;;;70.10;28.27;;;;;;;20.03;59.83;101226.13;5088265;28;20610;-79
2022/10/31 07:35:50;;;;;;;88.18;28.95;;;;;;;20.13;59.28;101224.06;5088537;28;20032;-78
2022/10/31 07:38:16;;;;;;;56.53;25.92;;;;;;;20.02;59.34;101194.41;5087917;28;20043;-80
2022/10/31 07:40:42;;;;;;;57.55;26.58;;;;;;;20.23;58.50;101219.28;5088441;28;20016;-79
2022/10/31 07:43:09;;;;;;;68.00;26.05;;;;;;;20.27;58.26;101219.84;5089937;28;20059;-79
2022/10/31 07:45:35;;;;;;;93.03;27.02;;;;;;;20.07;58.36;101183.78;5092594;28;20024;-80
2022/10/31 07:48:02;;;;;;;65.93;26.60;;;;;;;20.20;58.25;101203.25;5091903;28;20160;-78
2022/10/31 07:50:31;;;;;;;208.50;33.58;;;;;;;20.39;58.15;101227.50;5092043;28;20024;-80
2022/10/31 07:53:04;;;;;;;59.28;24.75;;;;;;;20.42;58.11;101229.88;5091824;28;20122;-79
2022/10/31 07:55:30;;;;;;;71.60;25.98;;;;;;;20.46;58.18;101231.22;5091769;28;20028;-80
2022/10/31 07:58:01;;;;;;;91.63;26.48;;;;;;;20.44;58.47;101230.56;5091732;28;20816;-80
2022/10/31 08:00:27;;;;;;;170.50;35.53;;;;;;;20.46;58.55;101225.75;5091568;28;20036;-81
2022/10/31 08:02:59;;;;;;;75.18;26.70;;;;;;;20.49;58.30;101219.94;5092086;28;20046;-79
2022/10/31 08:05:25;;;;;;;105.75;32.78;;;;;;;20.51;58.33;101206.97;5092236;28;20017;-79
2022/10/31 08:07:50;;;;;;;222.38;35.13;;;;;;;20.67;58.13;101221.63;5092764;28;20032;-80
2022/10/31 08:10:15;;;;;;;441.25;55.15;;;;;;;20.68;58.48;101229.63;5092832;28;20031;-79
2022/10/31 08:12:41;;;;;;;111.20;27.05;;;;;;;20.78;58.17;101223.97;5097541;28;20031;-80
2022/10/31 08:15:07;;;;;;;100.43;27.67;;;;;;;20.89;58.13;101239.97;5116213;28;20032;-78
2022/10/31 08:17:35;;;;;;;121.82;29.60;;;;;;;20.74;58.52;101222.59;5115345;28;20025;-79
2022/10/31 08:20:01;;;;;;;77.07;26.30;;;;;;;20.78;58.40;101234.91;5100471;28;20024;-78
2022/10/31 08:22:27;;;;;;;75.68;26.20;;;;;;;20.63;58.73;101208.31;5091076;28;20031;-79
2022/10/31 08:24:52;;;;;;;72.57;27.65;;;;;;;20.88;58.78;101219.16;5091353;28;20417;-80
2022/10/31 08:27:17;;;;;;;57.25;25.25;;;;;;;20.99;59.17;101226.97;5091091;28;20027;-80
2022/10/31 08:29:43;;;;;;;61.95;23.02;;;;;;;20.98;59.54;101231.56;5091176;28;20024;-80
2022/10/31 08:32:08;;;;;;;86.57;25.48;;;;;;;21.17;58.95;101227.59;5090537;28;20058;-78
2022/10/31 08:34:34;;;;;;;52.03;25.05;;;;;;;21.19;59.37;101219.22;5090960;28;20036;-78
2022/10/31 08:36:59;;;;;;;162.57;31.55;;;;;;;21.27;59.54;101220.00;5071553;28;20040;-80
2022/10/31 08:39:24;;;;;;;61.47;25.17;;;;;;;21.14;59.44;101181.44;5090885;28;20028;-79
2022/10/31 08:41:50;;;;;;;122.97;29.10;;;;;;;21.43;59.61;101222.66;5089642;28;20035;-79
2022/10/31 08:44:16;;;;;;;86.43;28.10;;;;;;;21.39;60.23;101235.00;5091322;28;20078;-78
2022/10/31 08:46:41;;;;;;;58.30;25.48;;;;;;;21.55;59.57;101234.91;5090765;28;20039;-80
2022/10/31 08:49:07;;;;;;;52.15;24.77;;;;;;;21.63;59.37;101248.53;5090676;28;20035;-81
2022/10/31 08:51:32;;;;;;;57.42;24.98;;;;;;;21.54;59.56;101218.63;5090945;28;20028;-80
2022/10/31 08:53:57;;;;;;;43.17;23.88;;;;;;;21.78;58.64;101236.78;5090365;28;20031;-77
2022/10/31 08:56:23;;;;;;;50.75;23.40;;;;;;;21.73;58.96;101214.56;5090813;28;20028;-79
2022/10/31 08:58:48;;;;;;;58.65;24.50;;;;;;;21.93;59.48;101232.22;5093773;28;20391;-79
2022/10/31 09:01:14;;;;;;;452.10;53.75;;;;;;;22.18;59.10;101236.47;5093801;28;20028;-80
2022/10/31 09:03:39;;;;;;;65.65;25.20;;;;;;;22.34;57.98;101246.44;5093210;28;20035;-80
2022/10/31 09:06:08;;;;;;;90.32;23.95;;;;;;;22.56;56.69;101240.03;5090244;28;20035;-79
2022/10/31 09:08:34;;;;;;;65.80;21.88;;;;;;;22.55;56.43;101217.25;5090456;28;20102;-80
2022/10/31 09:11:00;;;;;;;51.60;21.10;;;;;;;22.84;56.21;101229.31;5090558;28;20038;-78
2022/10/31 09:13:26;;;;;;;73.47;23.38;;;;;;;22.99;55.59;101235.63;5090669;28;20024;-79
2022/10/31 09:15:52;;;;;;;130.68;27.75;;;;;;;23.16;55.10;101226.13;5091164;28;20039;-78
2022/10/31 09:18:22;;;;;;;54.95;21.73;;;;;;;23.10;55.36;101232.38;5093787;28;20027;-79
2022/10/31 09:20:49;;;;;;;58.10;21.92;;;;;;;22.80;56.17;101223.34;5091097;28;20181;-78
2022/10/31 09:23:16;;;;;;;65.07;22.92;;;;;;;22.62;56.83;101223.69;5094210;28;20608;-80
2022/10/31 09:25:42;;;;;;;116.07;24.77;;;;;;;22.33;57.30;101211.81;5102451;28;20018;-77
2022/10/31 09:28:14;;;;;;;53.42;19.05;;;;;;;22.43;57.24;101229.72;5109090;28;20067;-78
2022/10/31 09:30:39;;;;;;;73.10;21.25;;;;;;;22.24;56.64;101216.53;5111906;28;20039;-79
2022/10/31 09:33:09;;;;;;;40.08;17.90;;;;;;;22.30;57.10;101215.81;5099573;28;20131;-80
2022/10/31 09:35:35;;;;;;;43.95;16.70;;;;;;;22.29;57.10;101211.38;5096928;28;20020;-80
2022/10/31 09:38:06;;;;;;;40.40;16.80;;;;;;;22.39;57.22;101211.94;5095855;28;20031;-79
2022/10/31 09:40:35;;;;;;;56.58;15.38;;;;;;;22.68;56.07;101219.38;5093674;28;20024;-80
2022/10/31 09:43:01;;;;;;;33.75;12.93;;;;;;;22.59;55.05;101218.59;5092853;28;20495;-80
2022/10/31 09:45:32;;;;;;;91.88;19.13;;;;;;;22.83;55.53;101213.88;5094247;28;20035;-79
2022/10/31 09:47:57;;;;;;;41.63;15.25;;;;;;;22.60;56.01;101214.78;5093832;28;20032;-80
2022/10/31 09:50:32;;;;;;;34.47;12.30;;;;;;;22.51;54.26;101183.00;5094354;28;20048;-78
2022/10/31 09:53:03;;;;;;;60.78;14.57;;;;;;;22.86;53.83;101208.00;5093393;28;20032;-80
2022/10/31 09:55:40;;;;;;;98.75;15.02;;;;;;;23.06;53.36;101209.09;5090445;28;20367;-80
2022/10/31 09:58:13;;;;;;;206.25;22.45;;;;;;;23.04;52.91;101181.03;5095293;28;20036;-81
2022/10/31 10:00:38;;;;;;;247.85;27.45;;;;;;;23.26;52.63;101210.22;5090101;28;20072;-79
2022/10/31 10:03:19;;;;;;;193.98;24.65;;;;;;;23.09;52.74;101214.22;5090600;28;20108;-80
2022/10/31 10:06:04;;;;;;;105.15;15.57;;;;;;;23.05;53.08;101196.44;5090855;28;20493;-82
2022/10/31 10:08:31;;;;;;;190.93;21.27;;;;;;;23.29;52.63;101191.47;5091082;28;20494;-80
2022/10/31 10:11:03;;;;;;;63.40;14.52;;;;;;;23.26;52.54;101193.75;5090586;28;20032;-79
2022/10/31 10:13:46;;;;;;;37.90;14.85;;;;;;;23.11;52.70;101199.28;5089790;28;20032;-80
2022/10/31 10:16:33;;;;;;;73.03;16.50;;;;;;;22.92;53.12;101168.84;5089112;28;20055;-80
2022/10/31 10:19:22;;;;;;;70.80;17.20;;;;;;;23.05;51.95;101188.22;5089874;28;20140;-80
2022/10/31 10:22:03;;;;;;;110.30;19.00;;;;;;;22.93;52.82;101163.19;5089697;28;20134;-80
2022/10/31 10:24:54;;;;;;;135.98;19.50;;;;;;;23.06;53.08;101168.81;5089501;28;20134;-80
2022/10/31 10:27:55;;;;;;;28.63;13.30;;;;;;;22.64;52.88;101160.41;5089702;28;20020;-80
2022/10/31 10:30:23;;;;;;;39.17;13.57;;;;;;;22.48;53.41;101142.28;5026479;28;20168;-79
2022/10/31 10:32:56;;;;;;;101.47;16.05;;;;;;;22.74;53.30;101183.81;5026459;28;20526;-79
2022/10/31 10:35:33;;;;;;;178.60;20.45;;;;;;;22.69;53.21;101190.88;5026927;28;20627;-79
2022/10/31 10:38:12;;;;;;;107.78;14.68;;;;;;;22.57;53.71;101190.50;5027968;28;20037;-79
2022/10/31 10:40:37;;;;;;;150.57;18.23;;;;;;;22.65;54.00;101189.59;5049116;28;20045;-79
2022/10/31 10:43:34;;;;;;;154.65;21.80;;;;;;;22.93;53.98;101187.00;5049869;28;20072;-78
2022/10/31 10:49:22;;;;;;;119.85;17.23;;;;;;;23.12;53.50;101189.13;5027585;28;20080;-78
2022/10/31 10:52:08;;;;;;;45.70;12.25;;;;;;;23.29;52.89;101193.38;5025976;28;20041;-79
2022/10/31 10:54:55;;;;;;;92.10;15.15;;;;;;;23.03;52.11;101144.50;5026302;28;20041;-80
2022/10/31 10:57:26;;;;;;;90.53;16.08;;;;;;;23.32;51.76;101171.00;5025779;28;20061;-79
2022/10/31 10:59:52;;;;;;;26.02;10.57;;;;;;;23.63;51.30;101160.59;5025798;28;20045;-79
2022/10/31 11:02:26;;;;;;;34.70;13.27;;;;;;;23.66;50.83;101146.47;5027115;28;20103;-80
2022/10/31 11:04:55;;;;;;;196.45;21.20;;;;;;;23.52;51.95;101169.34;5028031;28;20172;-80
2022/10/31 11:07:21;;;;;;;33.53;10.35;;;;;;;23.34;52.45;101152.44;5073774;28;20388;-79
2022/10/31 11:09:47;;;;;;;236.88;23.25;;;;;;;23.34;52.17;101168.91;5090323;28;20525;-79
2022/10/31 11:12:29;;;;;;;271.00;24.92;;;;;;;23.12;52.68;101169.91;5090299;28;20099;-78
2022/10/31 11:14:59;;;;;;;191.32;21.55;;;;;;;23.21;52.42;101174.25;5090049;28;20038;-80
2022/10/31 11:17:34;;;;;;;37.13;10.32;;;;;;;23.03;52.43;101174.69;5092965;28;20032;-79